Time;durP1;ratioP1;P1;durP2;ratioP2;P2;SDS_P1;SDS_P2;PMS_P1;PMS_P2;Temp;Humidity;BMP_temperature;BMP_pressure;BME280_temperature;BME280_humidity;BME280_pressure;Samples;Min_cycle;Max_cycle;Signal;HPM_P1;HPM_P2
2022/12/13 00:04:44;;;;;;;14.77;11.23;;;;;;;;;;10293401;28;20096;-63
2022/12/13 00:09:42;;;;;;;15.98;11.60;;;;;;;;;;10318803;28;20064;-63
2022/12/13 00:14:40;;;;;;;12.15;10.00;;;;;;;;;;10317344;28;20079;-63
2022/12/13 00:19:39;;;;;;;38.58;18.35;;;;;;;;;;10317264;28;20064;-62
2022/12/13 00:24:38;;;;;;;16.77;14.25;;;;;;;;;;10318864;28;20083;-63
2022/12/13 00:29:43;;;;;;;14.43;11.27;;;;;;;;;;10318193;28;20072;-63
2022/12/13 00:34:41;;;;;;;15.93;12.57;;;;;;;;;;10316474;28;20102;-63
2022/12/13 00:39:40;;;;;;;20.70;14.07;;;;;;;;;;10316918;28;20083;-62
2022/12/13 00:44:38;;;;;;;23.27;14.98;;;;;;;;;;10316124;28;20080;-63
2022/12/13 00:49:37;;;;;;;21.17;13.65;;;;;;;;;;10318399;28;20076;-63
2022/12/13 00:54:35;;;;;;;16.98;12.10;;;;;;;;;;10317167;28;20069;-62
2022/12/13 00:59:34;;;;;;;17.90;12.13;;;;;;;;;;10317205;28;20098;-62
2022/12/13 01:04:33;;;;;;;19.52;11.18;;;;;;;;;;10317560;28;20099;-63
2022/12/13 01:09:32;;;;;;;16.42;11.85;;;;;;;;;;10316902;28;20068;-63
2022/12/13 01:14:30;;;;;;;16.00;12.85;;;;;;;;;;10316357;28;20537;-64
2022/12/13 01:19:30;;;;;;;14.50;11.15;;;;;;;;;;10316988;28;20075;-63
2022/12/13 01:24:28;;;;;;;12.80;11.00;;;;;;;;;;10317022;28;20079;-64
2022/12/13 01:29:27;;;;;;;13.15;10.43;;;;;;;;;;10317095;28;20072;-61
2022/12/13 01:34:26;;;;;;;11.15;8.98;;;;;;;;;;10313749;28;20084;-63
2022/12/13 01:39:27;;;;;;;14.93;11.07;;;;;;;;;;10313867;28;20512;-63
2022/12/13 01:44:43;;;;;;;15.15;11.45;;;;;;;;;;10314641;28;20591;-62
2022/12/13 01:49:41;;;;;;;13.85;9.93;;;;;;;;;;10315815;28;20076;-62
2022/12/13 01:54:45;;;;;;;17.90;11.75;;;;;;;;;;10313261;28;20550;-63
2022/12/13 01:59:44;;;;;;;12.70;9.30;;;;;;;;;;10313898;28;20072;-63
2022/12/13 02:04:45;;;;;;;13.45;10.55;;;;;;;;;;10314307;28;20091;-63
2022/12/13 02:09:45;;;;;;;15.38;10.75;;;;;;;;;;10313638;28;20075;-63
2022/12/13 02:14:43;;;;;;;14.68;11.45;;;;;;;;;;10313471;28;20101;-62
2022/12/13 02:20:08;;;;;;;26.48;15.30;;;;;;;;;;10312566;28;20051;-63
2022/12/13 02:25:21;;;;;;;18.05;13.02;;;;;;;;;;10290239;28;20103;-62
2022/12/13 02:30:29;;;;;;;30.75;18.20;;;;;;;;;;10313185;28;20541;-63
2022/12/13 02:35:32;;;;;;;16.83;11.40;;;;;;;;;;10286441;28;20079;-63
2022/12/13 02:40:31;;;;;;;29.73;19.35;;;;;;;;;;10313431;28;20056;-63
2022/12/13 02:45:34;;;;;;;24.58;17.80;;;;;;;;;;10314192;28;20056;-63
2022/12/13 02:50:32;;;;;;;14.23;10.50;;;;;;;;;;10313515;28;20087;-62
2022/12/13 02:55:34;;;;;;;25.55;20.75;;;;;;;;;;10313168;28;20095;-62
2022/12/13 03:00:51;;;;;;;13.13;10.93;;;;;;;;;;10313222;28;20080;-63
2022/12/13 03:11:11;;;;;;;15.85;11.75;;;;;;;;;;10287622;28;20473;-63
2022/12/13 03:16:14;;;;;;;13.25;11.07;;;;;;;;;;10314896;28;20072;-63
2022/12/13 03:21:20;;;;;;;15.30;10.20;;;;;;;;;;10321215;28;20090;-62
2022/12/13 03:26:20;;;;;;;11.57;10.38;;;;;;;;;;10321728;28;20080;-63
2022/12/13 03:31:19;;;;;;;16.13;9.40;;;;;;;;;;10320384;28;20087;-63
2022/12/13 03:36:18;;;;;;;11.75;9.57;;;;;;;;;;10320221;28;20079;-63
2022/12/13 03:41:20;;;;;;;11.23;9.48;;;;;;;;;;10321439;28;20114;-62
2022/12/13 03:46:19;;;;;;;11.18;9.52;;;;;;;;;;10320853;28;20075;-62
2022/12/13 03:51:18;;;;;;;12.27;9.45;;;;;;;;;;10319590;28;20079;-62
2022/12/13 03:56:16;;;;;;;13.02;10.85;;;;;;;;;;10319072;28;20545;-63
2022/12/13 04:01:15;;;;;;;12.32;9.07;;;;;;;;;;10320530;28;20506;-63
2022/12/13 04:06:16;;;;;;;13.30;10.48;;;;;;;;;;10319579;28;20080;-62
2022/12/13 04:16:40;;;;;;;15.23;12.30;;;;;;;;;;10273065;28;20083;-62
2022/12/13 04:21:39;;;;;;;16.95;12.57;;;;;;;;;;10300716;28;20075;-62
2022/12/13 04:26:37;;;;;;;14.88;11.80;;;;;;;;;;10315302;28;20469;-63
2022/12/13 04:31:35;;;;;;;13.90;9.20;;;;;;;;;;10318973;28;20072;-62
2022/12/13 04:36:34;;;;;;;29.98;19.40;;;;;;;;;;10318461;28;20068;-63
2022/12/13 04:41:36;;;;;;;18.58;12.05;;;;;;;;;;10319452;28;20524;-63
2022/12/13 04:46:35;;;;;;;53.60;25.52;;;;;;;;;;10318968;28;20087;-62
2022/12/13 04:51:33;;;;;;;26.05;15.95;;;;;;;;;;10317938;28;20140;-62
2022/12/13 04:56:31;;;;;;;16.13;10.88;;;;;;;;;;10317831;28;20099;-63
2022/12/13 05:01:31;;;;;;;25.70;13.80;;;;;;;;;;10318635;28;20072;-62
2022/12/13 05:06:29;;;;;;;25.77;14.73;;;;;;;;;;10318269;28;20065;-62
2022/12/13 05:11:27;;;;;;;21.05;12.82;;;;;;;;;;10314724;28;20510;-61
2022/12/13 05:16:32;;;;;;;;;;;;;;;;;;10315838;28;20501;-61
2022/12/13 05:21:33;;;;;;;19.05;14.20;;;;;;;;;;10317379;28;19971;-60
2022/12/13 05:26:32;;;;;;;19.63;13.20;;;;;;;;;;10316203;28;20040;-61
2022/12/13 05:31:30;;;;;;;25.25;15.57;;;;;;;;;;10315840;28;20095;-61
2022/12/13 05:36:29;;;;;;;18.98;13.68;;;;;;;;;;10315288;28;20497;-60
2022/12/13 05:41:32;;;;;;;17.60;14.32;;;;;;;;;;10311436;28;20521;-61
2022/12/13 05:46:30;;;;;;;14.23;12.32;;;;;;;;;;10311507;28;20084;-61
2022/12/13 05:51:33;;;;;;;16.52;12.20;;;;;;;;;;10314869;28;20079;-62
2022/12/13 05:56:33;;;;;;;14.40;12.02;;;;;;;;;;10312429;28;20071;-62
2022/12/13 06:01:31;;;;;;;13.43;11.20;;;;;;;;;;10312785;28;20524;-62
2022/12/13 06:06:29;;;;;;;16.95;12.10;;;;;;;;;;10314839;28;20071;-62
2022/12/13 06:11:27;;;;;;;16.08;12.68;;;;;;;;;;10313368;28;20623;-62
2022/12/13 06:16:30;;;;;;;17.08;13.80;;;;;;;;;;10312103;28;20064;-62
2022/12/13 06:21:29;;;;;;;18.25;12.95;;;;;;;;;;10313471;28;20536;-61
2022/12/13 06:26:40;;;;;;;31.08;18.25;;;;;;;;;;10311629;28;20072;-61
2022/12/13 06:31:40;;;;;;;22.70;14.00;;;;;;;;;;10313129;28;20079;-61
2022/12/13 06:36:38;;;;;;;24.27;17.83;;;;;;;;;;10314292;28;20072;-62
2022/12/13 06:41:36;;;;;;;33.75;18.67;;;;;;;;;;10314826;28;20494;-63
2022/12/13 06:46:34;;;;;;;24.77;16.92;;;;;;;;;;10313904;28;20079;-62
2022/12/13 06:51:39;;;;;;;19.17;14.60;;;;;;;;;;10310478;28;20067;-63
2022/12/13 06:56:37;;;;;;;20.23;14.48;;;;;;;;;;10313894;28;20064;-62
2022/12/13 07:01:35;;;;;;;20.42;15.93;;;;;;;;;;10313359;28;20166;-62
2022/12/13 07:06:35;;;;;;;20.55;15.73;;;;;;;;;;10309322;28;20078;-62
2022/12/13 07:11:34;;;;;;;17.73;13.35;;;;;;;;;;10313299;28;20068;-63
2022/12/13 07:16:32;;;;;;;18.58;13.77;;;;;;;;;;10312708;28;20068;-62
2022/12/13 07:21:31;;;;;;;23.23;16.08;;;;;;;;;;10311580;28;20079;-62
2022/12/13 07:26:29;;;;;;;15.80;12.23;;;;;;;;;;10312036;28;20071;-63
2022/12/13 07:31:28;;;;;;;14.98;13.38;;;;;;;;;;10309491;28;20076;-62
2022/12/13 07:36:27;;;;;;;21.88;16.52;;;;;;;;;;10308983;28;20087;-62
2022/12/13 07:41:25;;;;;;;20.30;15.82;;;;;;;;;;10312132;28;20079;-62
2022/12/13 07:46:24;;;;;;;20.70;14.63;;;;;;;;;;10308298;28;20068;-62
2022/12/13 07:51:32;;;;;;;29.60;20.40;;;;;;;;;;10312313;28;20068;-62
2022/12/13 07:56:32;;;;;;;28.10;17.88;;;;;;;;;;10310506;28;20065;-61
2022/12/13 08:01:33;;;;;;;36.22;22.30;;;;;;;;;;10310976;28;20079;-61
2022/12/13 08:06:36;;;;;;;57.78;34.08;;;;;;;;;;10318245;28;20077;-61
2022/12/13 08:11:34;;;;;;;31.25;18.40;;;;;;;;;;10319451;28;20072;-61
2022/12/13 08:16:32;;;;;;;39.58;23.08;;;;;;;;;;10319474;28;20060;-63
2022/12/13 08:21:36;;;;;;;44.90;29.15;;;;;;;;;;10319101;28;20097;-63
2022/12/13 08:26:53;;;;;;;27.23;20.70;;;;;;;;;;10315678;28;20068;-63
2022/12/13 08:31:51;;;;;;;24.05;18.40;;;;;;;;;;10318859;28;20643;-63
2022/12/13 08:36:51;;;;;;;24.77;18.80;;;;;;;;;;10318634;28;20443;-63
2022/12/13 08:41:59;;;;;;;25.33;19.00;;;;;;;;;;10298597;28;20052;-62
2022/12/13 08:47:15;;;;;;;27.33;19.67;;;;;;;;;;10318830;28;20518;-61
2022/12/13 08:52:23;;;;;;;32.92;24.23;;;;;;;;;;10318327;28;20072;-62
2022/12/13 08:57:21;;;;;;;25.88;19.52;;;;;;;;;;10317449;28;20520;-62
2022/12/13 09:02:20;;;;;;;29.02;21.35;;;;;;;;;;10317469;28;20095;-62
2022/12/13 09:07:18;;;;;;;26.77;20.52;;;;;;;;;;10317814;28;20068;-62
2022/12/13 09:12:18;;;;;;;29.60;23.42;;;;;;;;;;10316665;28;20083;-62
2022/12/13 09:17:27;;;;;;;20.10;16.95;;;;;;;;;;10314597;28;20071;-62
2022/12/13 09:22:34;;;;;;;30.27;22.35;;;;;;;;;;10315154;28;20064;-62
2022/12/13 09:27:33;;;;;;;24.33;19.05;;;;;;;;;;10315546;28;20075;-62
2022/12/13 09:32:37;;;;;;;37.75;25.65;;;;;;;;;;10315291;28;20060;-63
2022/12/13 09:37:35;;;;;;;22.40;18.38;;;;;;;;;;10316068;28;20072;-63
2022/12/13 09:42:46;;;;;;;18.83;15.60;;;;;;;;;;10315996;28;20067;-63
2022/12/13 09:47:45;;;;;;;22.05;17.42;;;;;;;;;;10312937;28;20087;-61
2022/12/13 09:52:45;;;;;;;32.38;23.55;;;;;;;;;;10313317;28;20080;-61
2022/12/13 09:57:45;;;;;;;30.75;21.33;;;;;;;;;;10313329;28;20236;-62
2022/12/13 10:02:44;;;;;;;38.40;25.60;;;;;;;;;;10306495;28;20491;-62
2022/12/13 10:07:43;;;;;;;27.35;22.77;;;;;;;;;;10309452;28;20060;-63
2022/12/13 10:12:42;;;;;;;29.38;21.23;;;;;;;;;;10313234;28;20079;-62
2022/12/13 10:17:47;;;;;;;22.55;17.30;;;;;;;;;;10293873;28;20106;-62
2022/12/13 10:22:52;;;;;;;24.08;17.35;;;;;;;;;;10312061;28;20110;-62
2022/12/13 10:28:10;;;;;;;21.55;15.77;;;;;;;;;;10313114;28;20429;-62
2022/12/13 10:33:20;;;;;;;29.55;25.02;;;;;;;;;;10313934;28;20075;-61
2022/12/13 10:38:26;;;;;;;29.42;21.45;;;;;;;;;;10312960;28;20107;-62
2022/12/13 10:43:30;;;;;;;20.60;17.80;;;;;;;;;;10309909;28;20417;-62
2022/12/13 10:48:33;;;;;;;24.02;17.88;;;;;;;;;;10310391;28;20132;-63
2022/12/13 10:53:36;;;;;;;23.40;18.33;;;;;;;;;;10311982;28;20099;-61
2022/12/13 10:58:41;;;;;;;27.17;19.15;;;;;;;;;;10311123;28;20076;-62
2022/12/13 11:03:41;;;;;;;22.25;18.30;;;;;;;;;;10311787;28;20487;-61
2022/12/13 11:08:40;;;;;;;20.45;15.77;;;;;;;;;;10308338;28;20084;-61
2022/12/13 11:13:41;;;;;;;36.65;23.25;;;;;;;;;;10313089;28;20068;-61
2022/12/13 11:18:41;;;;;;;25.98;19.15;;;;;;;;;;10311157;28;20082;-61
2022/12/13 11:23:43;;;;;;;28.75;21.13;;;;;;;;;;10310874;28;20068;-63
2022/12/13 11:28:51;;;;;;;24.55;20.02;;;;;;;;;;10309655;28;20076;-62
2022/12/13 11:33:55;;;;;;;23.50;17.80;;;;;;;;;;10309589;28;20461;-63
2022/12/13 11:39:01;;;;;;;29.58;21.95;;;;;;;;;;10316050;28;20080;-61
2022/12/13 11:44:00;;;;;;;24.27;18.40;;;;;;;;;;10319087;28;20067;-62
2022/12/13 11:49:03;;;;;;;22.60;16.67;;;;;;;;;;10318612;28;20092;-61
2022/12/13 11:54:03;;;;;;;20.77;16.90;;;;;;;;;;10318368;28;20099;-63
2022/12/13 11:59:03;;;;;;;24.42;19.00;;;;;;;;;;10300099;28;20080;-61
2022/12/13 12:04:17;;;;;;;20.33;14.85;;;;;;;;;;10319921;28;20421;-62
2022/12/13 12:09:17;;;;;;;16.38;13.68;;;;;;;;;;10317953;28;20036;-61
2022/12/13 12:14:19;;;;;;;20.73;16.95;;;;;;;;;;10318155;28;20506;-62
2022/12/13 12:19:20;;;;;;;25.30;18.35;;;;;;;;;;10317920;28;20072;-62
2022/12/13 12:24:24;;;;;;;28.77;23.27;;;;;;;;;;10318190;28;20143;-62
2022/12/13 12:29:28;;;;;;;22.92;18.02;;;;;;;;;;10318875;28;20068;-62
2022/12/13 12:34:33;;;;;;;21.20;16.67;;;;;;;;;;10292857;28;20070;-62
2022/12/13 12:39:43;;;;;;;16.58;14.48;;;;;;;;;;10316977;28;20087;-63
2022/12/13 12:44:46;;;;;;;22.17;14.95;;;;;;;;;;10299842;28;20540;-62
2022/12/13 12:49:59;;;;;;;21.08;17.55;;;;;;;;;;10317366;28;20098;-61
2022/12/13 12:55:03;;;;;;;18.40;15.25;;;;;;;;;;10310004;28;20080;-62
2022/12/13 13:00:04;;;;;;;20.15;16.92;;;;;;;;;;10316185;28;20072;-61
2022/12/13 13:05:04;;;;;;;16.63;14.50;;;;;;;;;;10316384;28;20052;-62
2022/12/13 13:10:05;;;;;;;18.27;13.77;;;;;;;;;;10315670;28;20072;-61
2022/12/13 13:15:41;;;;;;;24.98;18.23;;;;;;;;;;10316515;28;20075;-61
2022/12/13 13:20:40;;;;;;;36.35;24.02;;;;;;;;;;10316440;28;20075;-63
2022/12/13 13:25:45;;;;;;;39.67;30.52;;;;;;;;;;10317597;28;20075;-62
2022/12/13 13:31:04;;;;;;;37.45;22.73;;;;;;;;;;10316641;28;20088;-61
2022/12/13 13:36:02;;;;;;;28.05;18.60;;;;;;;;;;10315642;28;20489;-61
2022/12/13 13:41:22;;;;;;;35.83;21.75;;;;;;;;;;10315185;28;20071;-62
2022/12/13 13:46:21;;;;;;;45.78;22.08;;;;;;;;;;10315967;28;20076;-63
2022/12/13 13:51:32;;;;;;;38.95;23.17;;;;;;;;;;10314899;28;20068;-62
2022/12/13 13:56:41;;;;;;;38.63;22.98;;;;;;;;;;10314579;28;20098;-63
2022/12/13 14:01:57;;;;;;;55.30;30.33;;;;;;;;;;10314304;28;20078;-62
2022/12/13 14:07:30;;;;;;;36.38;22.63;;;;;;;;;;10313264;28;20502;-61
2022/12/13 14:12:46;;;;;;;23.55;17.58;;;;;;;;;;10315699;28;20060;-63
2022/12/13 14:17:59;;;;;;;35.08;24.45;;;;;;;;;;10312675;28;20082;-62
2022/12/13 14:23:02;;;;;;;34.50;22.80;;;;;;;;;;10279524;28;20490;-63
2022/12/13 14:28:03;;;;;;;50.05;32.53;;;;;;;;;;10314239;28;20045;-62
2022/12/13 14:33:02;;;;;;;60.85;42.67;;;;;;;;;;10312990;28;20076;-62
2022/12/13 14:38:02;;;;;;;68.90;39.95;;;;;;;;;;10312197;28;20500;-61
2022/12/13 14:43:01;;;;;;;76.70;50.05;;;;;;;;;;10312935;28;20532;-62
2022/12/13 14:48:00;;;;;;;42.28;33.00;;;;;;;;;;10309246;28;20476;-62
2022/12/13 14:53:01;;;;;;;69.15;47.70;;;;;;;;;;10313631;28;20075;-62
2022/12/13 14:58:02;;;;;;;86.20;57.50;;;;;;;;;;10311246;28;20907;-63
2022/12/13 15:03:02;;;;;;;65.00;47.50;;;;;;;;;;10311588;28;20494;-62
2022/12/13 15:08:01;;;;;;;57.67;39.75;;;;;;;;;;10311074;28;20080;-63
2022/12/13 15:13:20;;;;;;;57.17;42.05;;;;;;;;;;10298107;28;20514;-62
2022/12/13 15:18:23;;;;;;;93.32;64.95;;;;;;;;;;10319292;28;20075;-61
2022/12/13 15:23:26;;;;;;;62.13;39.50;;;;;;;;;;10318956;28;20072;-63
2022/12/13 15:28:33;;;;;;;37.67;28.95;;;;;;;;;;10316713;28;20080;-62
2022/12/13 15:33:32;;;;;;;54.88;40.58;;;;;;;;;;10314733;28;20072;-62
2022/12/13 15:38:44;;;;;;;58.58;39.42;;;;;;;;;;10316074;28;20091;-63
2022/12/13 15:43:45;;;;;;;59.22;49.47;;;;;;;;;;10317409;28;20079;-62
2022/12/13 15:48:44;;;;;;;46.30;31.55;;;;;;;;;;10318023;28;20095;-62
2022/12/13 15:54:01;;;;;;;68.28;51.90;;;;;;;;;;10320639;28;20075;-63
2022/12/13 15:59:01;;;;;;;52.83;40.38;;;;;;;;;;10319212;28;20525;-63
2022/12/13 16:04:02;;;;;;;40.47;31.35;;;;;;;;;;10319079;28;20518;-62
2022/12/13 16:09:02;;;;;;;46.15;34.47;;;;;;;;;;10319929;28;20091;-63
2022/12/13 16:14:18;;;;;;;60.55;48.75;;;;;;;;;;10319096;28;20080;-63
2022/12/13 16:19:24;;;;;;;60.13;45.28;;;;;;;;;;10291236;28;20095;-62
2022/12/13 16:24:22;;;;;;;48.92;36.17;;;;;;;;;;10318510;28;20422;-62
2022/12/13 16:29:21;;;;;;;30.00;24.10;;;;;;;;;;10316797;28;20074;-62
2022/12/13 16:34:19;;;;;;;30.20;24.60;;;;;;;;;;10318910;28;20079;-63
2022/12/13 16:39:25;;;;;;;31.85;25.02;;;;;;;;;;10301074;28;20533;-62
2022/12/13 16:44:26;;;;;;;41.22;34.55;;;;;;;;;;10318937;28;20076;-62
2022/12/13 16:49:25;;;;;;;30.92;25.67;;;;;;;;;;10314700;28;20091;-62
2022/12/13 16:54:25;;;;;;;33.85;28.00;;;;;;;;;;10316243;28;20075;-63
2022/12/13 16:59:24;;;;;;;36.45;27.65;;;;;;;;;;10316150;28;20080;-62
2022/12/13 17:04:23;;;;;;;38.75;32.17;;;;;;;;;;10317624;28;20485;-62
2022/12/13 17:09:21;;;;;;;130.30;52.38;;;;;;;;;;10315724;28;20076;-63
2022/12/13 17:14:20;;;;;;;198.38;78.40;;;;;;;;;;10317694;28;20068;-62
2022/12/13 17:19:20;;;;;;;35.08;27.15;;;;;;;;;;10317159;28;20083;-63
2022/12/13 17:24:18;;;;;;;34.53;26.77;;;;;;;;;;10317098;28;20075;-62
2022/12/13 17:29:16;;;;;;;47.78;37.97;;;;;;;;;;10316610;28;20107;-62
2022/12/13 17:34:16;;;;;;;54.10;41.80;;;;;;;;;;10316322;28;20083;-62
2022/12/13 17:39:14;;;;;;;52.38;38.42;;;;;;;;;;10315532;28;20099;-62
2022/12/13 17:44:13;;;;;;;41.50;31.92;;;;;;;;;;10316050;28;20087;-63
2022/12/13 17:49:11;;;;;;;27.70;21.67;;;;;;;;;;10314547;28;20450;-62
2022/12/13 17:54:11;;;;;;;53.08;37.35;;;;;;;;;;10314168;28;20068;-62
2022/12/13 17:59:12;;;;;;;50.33;36.97;;;;;;;;;;10313578;28;20075;-62
2022/12/13 18:04:11;;;;;;;37.10;30.02;;;;;;;;;;10293988;28;20072;-61
2022/12/13 18:09:12;;;;;;;31.60;23.77;;;;;;;;;;10304434;28;20068;-63
2022/12/13 18:14:10;;;;;;;32.05;24.08;;;;;;;;;;10313289;28;20495;-62
2022/12/13 18:19:11;;;;;;;23.48;18.60;;;;;;;;;;10314671;28;20083;-64
2022/12/13 18:24:09;;;;;;;18.63;14.98;;;;;;;;;;10314611;28;20087;-63
2022/12/13 18:29:09;;;;;;;17.50;13.68;;;;;;;;;;10314765;28;20458;-62
2022/12/13 18:34:07;;;;;;;19.08;15.68;;;;;;;;;;10312288;28;20075;-63
2022/12/13 18:39:05;;;;;;;18.80;15.93;;;;;;;;;;10314290;28;20076;-62
2022/12/13 18:44:05;;;;;;;17.95;14.13;;;;;;;;;;10314392;28;20072;-62
2022/12/13 18:49:05;;;;;;;16.50;14.20;;;;;;;;;;10314012;28;20092;-63
2022/12/13 18:54:03;;;;;;;23.85;18.85;;;;;;;;;;10313704;28;20048;-62
2022/12/13 18:59:02;;;;;;;23.33;19.25;;;;;;;;;;10313221;28;20509;-61
2022/12/13 19:04:00;;;;;;;29.88;21.85;;;;;;;;;;10313259;28;20059;-62
2022/12/13 19:09:00;;;;;;;57.40;36.97;;;;;;;;;;10313701;28;20045;-62
2022/12/13 19:13:58;;;;;;;48.83;32.28;;;;;;;;;;10312250;28;20068;-62
2022/12/13 19:18:57;;;;;;;49.42;34.97;;;;;;;;;;10313238;28;20084;-62
2022/12/13 19:23:57;;;;;;;41.55;30.90;;;;;;;;;;10309511;28;20084;-62
2022/12/13 19:28:57;;;;;;;27.48;24.08;;;;;;;;;;10312908;28;20075;-63
2022/12/13 19:33:56;;;;;;;58.40;37.88;;;;;;;;;;10311419;28;20084;-63
2022/12/13 19:38:54;;;;;;;40.53;31.55;;;;;;;;;;10307902;28;20509;-62
2022/12/13 19:43:53;;;;;;;27.52;24.38;;;;;;;;;;10312889;28;20071;-63
2022/12/13 19:48:52;;;;;;;24.85;21.13;;;;;;;;;;10313224;28;20076;-62
2022/12/13 19:53:51;;;;;;;31.92;25.95;;;;;;;;;;10309520;28;20087;-62
2022/12/13 19:58:49;;;;;;;39.38;28.35;;;;;;;;;;10314393;28;20084;-62
2022/12/13 20:03:48;;;;;;;57.15;35.60;;;;;;;;;;10319245;28;20080;-62
2022/12/13 20:08:48;;;;;;;46.33;33.17;;;;;;;;;;10319299;28;20083;-62
2022/12/13 20:13:46;;;;;;;44.78;30.23;;;;;;;;;;10319969;28;20048;-61
2022/12/13 20:18:45;;;;;;;37.20;26.77;;;;;;;;;;10319500;28;20441;-60
2022/12/13 20:23:44;;;;;;;32.88;23.33;;;;;;;;;;10319577;28;20068;-62
2022/12/13 20:28:48;;;;;;;30.40;22.73;;;;;;;;;;10318050;28;20536;-61
2022/12/13 20:33:47;;;;;;;30.25;22.73;;;;;;;;;;10318976;28;20474;-62
2022/12/13 20:38:45;;;;;;;39.13;27.08;;;;;;;;;;10318091;28;20075;-61
2022/12/13 20:43:45;;;;;;;68.80;42.53;;;;;;;;;;10318632;28;20080;-62
2022/12/13 20:48:47;;;;;;;59.35;42.20;;;;;;;;;;10318684;28;20110;-62
2022/12/13 20:53:46;;;;;;;51.42;33.05;;;;;;;;;;10318124;28;20119;-61
2022/12/13 20:58:45;;;;;;;30.27;20.65;;;;;;;;;;10318244;28;20103;-62
2022/12/13 21:03:43;;;;;;;85.32;48.50;;;;;;;;;;10316755;28;20091;-63
2022/12/13 21:08:51;;;;;;;44.75;25.90;;;;;;;;;;10315833;28;20099;-61
2022/12/13 21:13:51;;;;;;;32.10;20.60;;;;;;;;;;10316902;28;20072;-63
2022/12/13 21:18:49;;;;;;;25.77;18.98;;;;;;;;;;10317069;28;20068;-62
2022/12/13 21:23:49;;;;;;;34.38;20.52;;;;;;;;;;10316465;28;20072;-63
2022/12/13 21:28:47;;;;;;;61.38;41.33;;;;;;;;;;10317007;28;20068;-63
2022/12/13 21:33:45;;;;;;;45.58;32.03;;;;;;;;;;10316746;28;20079;-63
2022/12/13 21:38:43;;;;;;;41.75;28.85;;;;;;;;;;10312892;28;20064;-63
2022/12/13 21:43:43;;;;;;;59.42;38.25;;;;;;;;;;10314650;28;20518;-63
2022/12/13 21:48:46;;;;;;;113.50;66.57;;;;;;;;;;10314886;28;20084;-64
2022/12/13 21:53:44;;;;;;;44.08;30.50;;;;;;;;;;10315738;28;20076;-64
2022/12/13 22:04:00;;;;;;;145.77;76.05;;;;;;;;;;10314890;28;20478;-64
2022/12/13 22:09:03;;;;;;;220.05;112.97;;;;;;;;;;10314350;28;20036;-63
2022/12/13 22:14:03;;;;;;;83.80;49.42;;;;;;;;;;10315497;28;20040;-63
2022/12/13 22:19:01;;;;;;;115.05;70.25;;;;;;;;;;10314337;28;20081;-64
2022/12/13 22:23:59;;;;;;;66.03;42.28;;;;;;;;;;10314119;28;20091;-64
2022/12/13 22:28:58;;;;;;;43.50;29.08;;;;;;;;;;10312353;28;20074;-64
2022/12/13 22:33:58;;;;;;;21.17;17.65;;;;;;;;;;10312635;28;20138;-63
2022/12/13 22:38:56;;;;;;;13.32;9.85;;;;;;;;;;10293962;28;20425;-64
2022/12/13 22:43:54;;;;;;;26.33;17.95;;;;;;;;;;10313572;28;20092;-63
2022/12/13 22:48:53;;;;;;;26.73;18.10;;;;;;;;;;10314235;28;20494;-64
2022/12/13 22:53:53;;;;;;;19.52;15.93;;;;;;;;;;10314244;28;20074;-64
2022/12/13 22:58:52;;;;;;;25.08;16.45;;;;;;;;;;10313151;28;20044;-64
2022/12/13 23:03:51;;;;;;;42.85;24.75;;;;;;;;;;10312852;28;20095;-64
2022/12/13 23:08:50;;;;;;;15.73;12.18;;;;;;;;;;10313490;28;20079;-64
2022/12/13 23:13:53;;;;;;;19.75;13.10;;;;;;;;;;10313573;28;20072;-63
2022/12/13 23:18:51;;;;;;;16.58;13.50;;;;;;;;;;10313435;28;20047;-64
2022/12/13 23:24:10;;;;;;;19.80;12.95;;;;;;;;;;10311180;28;20084;-62
2022/12/13 23:29:10;;;;;;;12.88;10.15;;;;;;;;;;10313673;28;20461;-64
2022/12/13 23:34:08;;;;;;;11.93;9.88;;;;;;;;;;10316915;28;20545;-64
2022/12/13 23:39:07;;;;;;;11.55;9.60;;;;;;;;;;10336160;28;20516;-63
2022/12/13 23:44:05;;;;;;;15.25;10.65;;;;;;;;;;10320798;28;20867;-63
2022/12/13 23:49:05;;;;;;;12.35;9.88;;;;;;;;;;10294547;28;20100;-63
2022/12/13 23:54:04;;;;;;;18.98;14.85;;;;;;;;;;10320416;28;20036;-63
2022/12/13 23:59:02;;;;;;;23.42;17.30;;;;;;;;;;10320392;28;20087;-64
